Time;durP1;ratioP1;P1;durP2;ratioP2;P2;SDS_P1;SDS_P2;PMS_P1;PMS_P2;Temp;Humidity;BMP_temperature;BMP_pressure;BME280_temperature;BME280_humidity;BME280_pressure;Samples;Min_cycle;Max_cycle;Signal;HPM_P1;HPM_P2
2022/09/01 00:02:07;;;;;;;2.83;1.05;;;;;;;19.14;50.08;102091.22;5075322;28;20039;-49
2022/09/01 00:04:35;;;;;;;1.70;1.00;;;;;;;19.12;50.35;102087.75;5071450;28;20044;-50
2022/09/01 00:07:01;;;;;;;2.35;1.05;;;;;;;19.18;50.33;102090.44;5079777;28;20035;-50
2022/09/01 00:09:26;;;;;;;2.90;1.10;;;;;;;19.16;51.18;102085.16;5074246;28;20031;-50
2022/09/01 00:11:53;;;;;;;2.17;0.95;;;;;;;19.09;51.11;102082.47;5078583;28;20048;-48
2022/09/01 00:14:22;;;;;;;3.00;1.10;;;;;;;19.04;51.60;102082.41;5079272;28;20621;-49
2022/09/01 00:16:48;;;;;;;;;;;;;;;19.31;50.55;102087.09;5076996;28;20020;-51
2022/09/01 00:19:13;;;;;;;3.47;1.20;;;;;;;19.01;51.96;102087.59;5074085;28;19922;-47
2022/09/01 00:21:41;;;;;;;3.67;1.00;;;;;;;18.91;52.45;102078.78;5070731;28;20646;-50
2022/09/01 00:24:08;;;;;;;2.42;1.00;;;;;;;18.98;52.32;102080.59;5074481;28;20119;-50
2022/09/01 00:26:33;;;;;;;3.13;1.20;;;;;;;18.93;52.56;102082.31;5075302;28;20511;-50
2022/09/01 00:28:59;;;;;;;3.80;1.02;;;;;;;18.88;52.52;102076.16;5073074;28;20032;-46
2022/09/01 00:31:26;;;;;;;3.70;1.20;;;;;;;18.87;52.97;102076.09;5073726;28;20023;-50
2022/09/01 00:33:51;;;;;;;3.25;1.10;;;;;;;18.92;52.64;102074.44;5069592;28;20032;-48
2022/09/01 00:36:18;;;;;;;4.82;1.23;;;;;;;18.90;52.88;102086.59;5071967;28;20570;-49
2022/09/01 00:38:44;;;;;;;3.60;1.00;;;;;;;18.79;53.42;102078.59;5073193;28;20028;-45
2022/09/01 00:41:10;;;;;;;4.55;1.08;;;;;;;18.83;53.39;102085.63;5073683;28;20044;-49
2022/09/01 00:43:46;;;;;;;4.50;1.10;;;;;;;18.82;53.70;102083.88;5072294;28;20106;-50
2022/09/01 00:46:21;;;;;;;2.92;1.27;;;;;;;18.83;53.21;102075.19;5073226;28;20051;-48
2022/09/01 00:48:52;;;;;;;3.00;0.90;;;;;;;18.69;53.69;102072.41;5077464;28;20480;-51
2022/09/01 00:51:17;;;;;;;2.70;1.00;;;;;;;18.74;53.95;102067.25;5071321;28;20483;-47
2022/09/01 00:53:44;;;;;;;2.63;1.20;;;;;;;18.65;54.22;102072.31;5074728;28;20111;-51
2022/09/01 00:56:12;;;;;;;2.05;1.02;;;;;;;18.68;53.73;102070.63;5070798;28;20130;-47
2022/09/01 00:58:38;;;;;;;1.92;0.90;;;;;;;18.64;54.15;102071.44;5071406;28;20486;-49
2022/09/01 01:01:05;;;;;;;1.10;0.88;;;;;;;18.60;54.42;102072.25;5072146;28;20485;-47
2022/09/01 01:03:30;;;;;;;2.63;1.10;;;;;;;18.60;54.51;102073.97;5070219;28;20055;-48
2022/09/01 01:06:00;;;;;;;3.05;1.30;;;;;;;18.56;54.70;102070.44;5074507;28;20068;-46
2022/09/01 01:08:37;;;;;;;3.97;1.15;;;;;;;18.57;54.80;102066.13;5073549;28;20025;-50
2022/09/01 01:11:17;;;;;;;3.03;1.00;;;;;;;18.59;54.64;102070.50;5078363;28;20749;-50
2022/09/01 01:13:55;;;;;;;3.78;1.20;;;;;;;18.56;54.63;102059.16;5075925;28;20040;-48
2022/09/01 01:16:22;;;;;;;5.53;1.10;;;;;;;18.46;55.19;102071.19;5073661;28;20476;-51
2022/09/01 01:18:49;;;;;;;3.90;1.20;;;;;;;18.37;55.38;102063.22;5073137;28;20047;-49
2022/09/01 01:24:22;;;;;;;2.85;1.10;;;;;;;18.38;55.55;102065.88;5073379;28;20043;-51
2022/09/01 01:26:48;;;;;;;1.67;1.17;;;;;;;18.28;55.97;102063.09;5072556;28;20079;-48
2022/09/01 01:29:14;;;;;;;2.75;1.23;;;;;;;18.21;56.43;102059.53;5073891;28;20500;-49
2022/09/01 01:31:40;;;;;;;4.55;1.13;;;;;;;18.22;56.15;102062.13;5072656;28;20055;-48
2022/09/01 01:34:06;;;;;;;2.35;1.13;;;;;;;18.11;56.57;102063.69;5075225;28;20068;-47
2022/09/01 01:36:36;;;;;;;4.38;1.10;;;;;;;18.14;56.43;102063.75;5068391;28;20047;-50
2022/09/01 01:39:09;;;;;;;5.53;1.25;;;;;;;18.16;56.40;102066.38;5070187;28;20028;-48
2022/09/01 01:41:39;;;;;;;2.40;1.17;;;;;;;18.10;56.97;102067.16;5068752;28;20566;-48
2022/09/01 01:44:05;;;;;;;2.08;1.20;;;;;;;18.13;57.05;102064.56;5069831;28;20748;-49
2022/09/01 01:46:32;;;;;;;3.60;1.33;;;;;;;18.16;56.69;102068.97;5069383;28;20052;-50
2022/09/01 01:49:00;;;;;;;2.67;1.52;;;;;;;18.17;56.90;102063.78;5071367;28;20032;-48
2022/09/01 01:51:27;;;;;;;7.65;1.58;;;;;;;18.07;57.09;102063.59;5071029;28;20074;-50
2022/09/01 01:53:54;;;;;;;3.92;1.50;;;;;;;18.03;57.36;102062.69;5069600;28;20021;-50
2022/09/01 01:56:22;;;;;;;3.55;1.35;;;;;;;18.08;57.17;102061.06;5069063;28;20300;-47
2022/09/01 01:58:48;;;;;;;3.42;1.30;;;;;;;18.10;56.93;102069.75;5072477;28;20174;-49
2022/09/01 02:01:15;;;;;;;5.15;1.20;;;;;;;18.08;57.50;102068.88;5074804;28;20112;-47
2022/09/01 02:03:41;;;;;;;2.65;1.50;;;;;;;18.02;57.56;102076.56;5070288;28;20032;-49
2022/09/01 02:06:10;;;;;;;4.03;1.30;;;;;;;18.05;57.47;102068.78;5072209;28;20089;-48
2022/09/01 02:08:37;;;;;;;1.85;1.30;;;;;;;18.04;57.27;102073.97;5069265;28;20527;-47
2022/09/01 02:11:04;;;;;;;3.20;1.55;;;;;;;17.92;57.81;102070.31;5070783;28;20107;-47
2022/09/01 02:13:30;;;;;;;2.90;1.20;;;;;;;17.97;57.66;102067.81;5071079;28;20029;-48
2022/09/01 02:15:59;;;;;;;4.07;1.38;;;;;;;17.94;57.54;102073.81;5076489;28;20043;-47
2022/09/01 02:18:27;;;;;;;;;;;;;;;18.16;56.77;102071.56;5068846;28;20438;-50
2022/09/01 02:20:54;;;;;;;3.67;1.40;;;;;;;17.86;58.22;102079.75;5070343;28;19999;-48
2022/09/01 02:23:23;;;;;;;4.60;2.15;;;;;;;17.83;58.32;102079.69;5071100;28;20070;-48
2022/09/01 02:25:52;;;;;;;3.90;1.30;;;;;;;17.86;58.32;102084.94;5076462;28;21432;-48
2022/09/01 02:28:18;;;;;;;;;;;;;;;18.09;57.05;102072.34;5076698;28;20032;-49
2022/09/01 02:30:48;;;;;;;3.90;1.25;;;;;;;17.87;58.12;102081.50;5076793;28;19983;-47
2022/09/01 02:33:17;;;;;;;5.13;1.35;;;;;;;17.90;57.96;102074.63;5070183;28;20507;-50
2022/09/01 02:35:48;;;;;;;4.10;1.33;;;;;;;17.88;58.11;102076.31;5070061;28;20035;-50
2022/09/01 02:38:16;;;;;;;3.42;1.38;;;;;;;17.77;58.34;102071.75;5071772;28;20082;-50
2022/09/01 02:40:44;;;;;;;2.60;1.33;;;;;;;17.79;58.33;102075.28;5071032;28;20032;-47
2022/09/01 02:43:13;;;;;;;6.30;1.77;;;;;;;17.73;58.61;102073.47;5072216;28;20474;-47
2022/09/01 02:45:41;;;;;;;3.75;1.20;;;;;;;17.69;58.76;102071.59;5068348;28;20032;-46
2022/09/01 02:48:08;;;;;;;2.00;1.30;;;;;;;17.62;58.71;102068.03;5072634;28;20054;-49
2022/09/01 02:50:37;;;;;;;2.47;1.40;;;;;;;17.71;58.80;102072.50;5071570;28;20024;-50
2022/09/01 02:53:08;;;;;;;6.45;1.55;;;;;;;17.72;58.49;102065.63;5070491;28;20097;-46
2022/09/01 02:55:38;;;;;;;5.13;1.45;;;;;;;17.72;58.32;102057.81;5074336;28;20028;-49
2022/09/01 02:58:03;;;;;;;1.67;1.30;;;;;;;17.64;58.36;102061.09;5073883;28;20125;-49
2022/09/01 03:00:32;;;;;;;4.32;1.50;;;;;;;17.64;58.60;102057.63;5067147;28;20111;-45
2022/09/01 03:03:00;;;;;;;3.25;1.52;;;;;;;17.70;58.69;102058.63;5072695;28;20039;-47
2022/09/01 03:05:29;;;;;;;2.33;1.30;;;;;;;17.70;58.72;102058.63;5073191;28;20039;-48
2022/09/01 03:07:58;;;;;;;5.45;1.60;;;;;;;17.69;58.35;102056.88;5074758;28;20024;-50
2022/09/01 03:10:30;;;;;;;2.67;1.50;;;;;;;17.67;58.45;102057.72;5071579;28;20036;-50
2022/09/01 03:12:56;;;;;;;1.65;1.33;;;;;;;17.66;58.48;102067.25;5075940;28;20033;-49
2022/09/01 03:15:22;;;;;;;2.85;1.40;;;;;;;17.58;58.61;102053.19;5079220;28;20524;-48
2022/09/01 03:17:47;;;;;;;2.55;1.40;;;;;;;17.52;59.03;102047.88;5076054;28;20039;-47
2022/09/01 03:20:15;;;;;;;3.72;1.42;;;;;;;17.50;58.86;102054.78;5078825;28;20472;-50
2022/09/01 03:22:41;;;;;;;7.00;1.63;;;;;;;17.54;58.87;102056.59;5074243;28;20066;-47
2022/09/01 03:25:06;;;;;;;3.08;1.40;;;;;;;17.54;58.76;102048.81;5076550;28;20107;-47
2022/09/01 03:27:32;;;;;;;2.88;1.52;;;;;;;17.53;58.57;102049.63;5072788;28;20032;-49
2022/09/01 03:29:57;;;;;;;4.30;1.40;;;;;;;17.49;58.57;102053.03;5074623;28;20048;-49
2022/09/01 03:32:23;;;;;;;4.57;1.75;;;;;;;17.47;58.83;102044.31;5077553;28;20039;-50
2022/09/01 03:34:50;;;;;;;2.85;1.40;;;;;;;17.49;58.51;102050.44;5076186;28;20028;-50
2022/09/01 03:37:16;;;;;;;5.07;1.52;;;;;;;17.46;58.47;102044.28;5070369;28;20512;-50
2022/09/01 03:39:42;;;;;;;3.95;1.65;;;;;;;17.47;58.43;102052.13;5074287;28;20476;-49
2022/09/01 03:42:10;;;;;;;7.85;1.50;;;;;;;17.47;58.50;102053.84;5077752;28;20082;-50
2022/09/01 03:44:39;;;;;;;3.58;1.27;;;;;;;17.48;58.33;102046.09;5074184;28;20040;-48
2022/09/01 03:47:09;;;;;;;2.50;1.50;;;;;;;17.46;58.39;102045.16;5075976;28;20400;-46
2022/09/01 03:49:38;;;;;;;5.38;1.65;;;;;;;17.42;58.52;102053.78;5072733;28;20028;-47
2022/09/01 03:52:07;;;;;;;4.07;1.55;;;;;;;17.39;58.93;102049.38;5075504;28;21589;-49
2022/09/01 03:54:33;;;;;;;5.47;1.50;;;;;;;17.41;58.46;102046.81;5073452;28;20027;-47
2022/09/01 03:56:59;;;;;;;3.25;1.30;;;;;;;17.37;58.75;102055.41;5074599;28;20044;-50
2022/09/01 03:59:27;;;;;;;3.70;1.58;;;;;;;17.35;58.36;102050.19;5072846;28;20216;-48
2022/09/01 04:01:52;;;;;;;8.88;1.40;;;;;;;17.24;58.50;102053.44;5074226;28;20441;-50
2022/09/01 04:04:18;;;;;;;3.60;1.35;;;;;;;17.20;58.37;102046.41;5071014;28;20158;-47
2022/09/01 04:06:45;;;;;;;4.28;1.40;;;;;;;17.22;58.38;102047.31;5072712;28;20051;-50
2022/09/01 04:09:11;;;;;;;3.30;1.48;;;;;;;17.20;58.55;102042.09;5069862;28;20054;-50
2022/09/01 04:11:38;;;;;;;2.17;1.50;;;;;;;17.19;58.38;102048.13;5077056;28;20032;-45
2022/09/01 04:14:04;;;;;;;4.05;1.60;;;;;;;17.12;58.40;102051.47;5072860;28;20104;-48
2022/09/01 04:19:38;;;;;;;2.75;1.35;;;;;;;17.13;58.64;102048.88;5018134;28;20030;-47
2022/09/01 04:22:03;;;;;;;4.55;1.80;;;;;;;17.09;58.34;102048.78;5062035;28;20044;-49
2022/09/01 04:24:31;;;;;;;3.35;1.38;;;;;;;17.04;58.26;102047.81;5078412;28;20105;-48
2022/09/01 04:27:00;;;;;;;2.25;1.60;;;;;;;17.02;58.24;102053.00;5069987;28;20090;-50
2022/09/01 04:29:27;;;;;;;6.63;1.60;;;;;;;17.01;58.37;102056.44;5072120;28;20385;-46
2022/09/01 04:32:02;;;;;;;3.20;1.50;;;;;;;17.02;58.34;102053.00;5073582;28;20081;-50
2022/09/01 04:34:35;;;;;;;3.50;1.90;;;;;;;16.99;58.30;102047.75;5077635;28;20474;-50
2022/09/01 04:37:02;;;;;;;4.43;1.58;;;;;;;16.95;58.51;102053.72;5071806;28;20415;-50
2022/09/01 04:39:28;;;;;;;2.90;1.70;;;;;;;16.93;58.42;102054.50;5077047;28;20028;-48
2022/09/01 04:41:54;;;;;;;4.45;1.50;;;;;;;16.86;58.14;102053.50;5070819;28;20067;-49
2022/09/01 04:44:19;;;;;;;3.00;1.42;;;;;;;16.82;58.50;102052.56;5074416;28;20043;-48
2022/09/01 04:46:47;;;;;;;3.85;1.50;;;;;;;16.91;58.01;102053.59;5077870;28;20032;-48
2022/09/01 04:49:18;;;;;;;3.33;1.48;;;;;;;16.86;57.87;102053.50;5072963;28;20029;-50
2022/09/01 04:51:46;;;;;;;4.35;1.42;;;;;;;16.75;57.97;102048.09;5074212;28;20032;-48
2022/09/01 04:54:13;;;;;;;2.28;1.40;;;;;;;16.78;57.67;102058.53;5073637;28;20027;-48
2022/09/01 04:56:41;;;;;;;5.32;1.20;;;;;;;16.75;57.96;102053.28;5073144;28;20048;-49
2022/09/01 04:59:09;;;;;;;2.57;1.40;;;;;;;16.71;57.92;102056.66;5074142;28;20036;-46
2022/09/01 05:01:42;;;;;;;3.70;1.27;;;;;;;16.76;57.79;102056.78;5070404;28;20029;-45
2022/09/01 05:04:19;;;;;;;4.18;1.50;;;;;;;16.77;57.74;102059.41;5072681;28;20089;-50
2022/09/01 05:06:48;;;;;;;4.43;1.40;;;;;;;16.79;57.52;102054.22;5073320;28;20078;-47
2022/09/01 05:09:16;;;;;;;5.70;1.67;;;;;;;16.77;57.53;102062.00;5076865;28;20481;-46
2022/09/01 05:11:44;;;;;;;5.65;1.83;;;;;;;16.78;58.00;102057.66;5069602;28;20103;-45
2022/09/01 05:14:11;;;;;;;2.05;1.40;;;;;;;16.75;57.76;102057.63;5077398;28;20074;-48
2022/09/01 05:16:39;;;;;;;4.13;1.40;;;;;;;16.75;57.49;102057.63;5073929;28;20032;-49
2022/09/01 05:19:13;;;;;;;4.03;1.65;;;;;;;16.71;57.48;102053.19;5076602;28;20051;-48
2022/09/01 05:21:44;;;;;;;3.28;1.42;;;;;;;16.66;57.63;102059.97;5074534;28;20090;-48
2022/09/01 05:24:14;;;;;;;2.92;1.40;;;;;;;16.63;57.58;102059.06;5074214;28;20839;-49
2022/09/01 05:26:42;;;;;;;3.67;1.40;;;;;;;16.59;57.71;102065.03;5075106;28;20032;-46
2022/09/01 05:29:18;;;;;;;3.92;1.65;;;;;;;16.52;57.88;102065.72;5072840;28;20032;-47
2022/09/01 05:31:46;;;;;;;4.07;1.30;;;;;;;16.60;57.93;102060.69;5071119;28;20024;-45
2022/09/01 05:34:12;;;;;;;4.75;1.70;;;;;;;16.55;57.69;102059.72;5069985;28;20040;-49
2022/09/01 05:36:43;;;;;;;3.45;1.48;;;;;;;16.56;57.90;102062.38;5074081;28;20476;-49
2022/09/01 05:39:13;;;;;;;5.90;1.80;;;;;;;16.50;57.91;102070.03;5069075;28;20028;-49
2022/09/01 05:41:39;;;;;;;5.55;1.52;;;;;;;16.48;57.97;102065.63;5073041;28;20050;-49
2022/09/01 05:44:07;;;;;;;3.55;1.42;;;;;;;16.53;57.92;102064.88;5071629;28;20081;-50
2022/09/01 05:46:34;;;;;;;9.93;1.80;;;;;;;16.50;58.02;102069.13;5070184;28;20036;-48
2022/09/01 05:48:59;;;;;;;5.00;1.48;;;;;;;16.47;58.15;102075.13;5068662;28;20076;-49
2022/09/01 05:51:27;;;;;;;3.97;1.50;;;;;;;16.35;58.38;102073.13;5071330;28;20044;-49
2022/09/01 05:53:57;;;;;;;4.75;1.80;;;;;;;16.37;58.67;102080.94;5069797;28;20455;-49
2022/09/01 05:56:25;;;;;;;5.07;1.75;;;;;;;16.34;58.53;102079.16;5070688;28;20028;-49
2022/09/01 05:58:51;;;;;;;6.00;1.70;;;;;;;16.33;58.77;102072.22;5070384;28;20073;-46
2022/09/01 06:01:20;;;;;;;5.93;2.35;;;;;;;16.42;58.31;102074.13;5070587;28;20033;-48
2022/09/01 06:03:46;;;;;;;;;;;;;;;16.63;57.95;102065.97;5069688;28;20393;-48
2022/09/01 06:06:11;;;;;;;5.75;1.88;;;;;;;16.49;58.26;102072.56;5072152;28;19911;-48
2022/09/01 06:08:37;;;;;;;5.78;1.60;;;;;;;16.51;57.93;102071.78;5074596;28;20032;-46
2022/09/01 06:11:11;;;;;;;5.07;1.67;;;;;;;16.56;58.13;102072.75;5077176;28;20055;-46
2022/09/01 06:13:40;;;;;;;7.95;2.10;;;;;;;16.60;58.25;102078.88;5065175;28;20040;-45
2022/09/01 06:16:10;;;;;;;4.50;1.75;;;;;;;16.59;58.06;102080.59;5069496;28;20036;-45
2022/09/01 06:18:37;;;;;;;3.53;1.75;;;;;;;16.66;57.95;102081.63;5074499;28;20028;-49
2022/09/01 06:21:04;;;;;;;5.63;1.77;;;;;;;16.72;57.82;102076.59;5072246;28;20028;-48
2022/09/01 06:23:30;;;;;;;4.28;1.52;;;;;;;16.78;57.92;102075.84;5072782;28;20097;-44
2022/09/01 06:25:57;;;;;;;7.95;1.80;;;;;;;16.87;57.78;102079.53;5072029;28;20102;-48
2022/09/01 06:28:22;;;;;;;4.70;1.67;;;;;;;16.98;57.51;102079.75;5070543;28;20024;-47
2022/09/01 06:30:49;;;;;;;3.13;1.90;;;;;;;17.06;57.28;102077.31;5068068;28;20047;-50
2022/09/01 06:33:15;;;;;;;4.15;1.63;;;;;;;17.14;57.23;102076.63;5072220;28;20028;-50
2022/09/01 06:35:43;;;;;;;4.05;1.88;;;;;;;17.22;56.64;102083.69;5073456;28;20131;-49
2022/09/01 06:38:11;;;;;;;5.95;1.73;;;;;;;17.35;57.04;102075.28;5076081;28;20032;-49
2022/09/01 06:40:39;;;;;;;8.93;1.90;;;;;;;17.42;56.75;102082.38;5071212;28;20034;-46
2022/09/01 06:43:06;;;;;;;7.77;1.73;;;;;;;17.54;56.19;102081.75;5073346;28;20098;-46
2022/09/01 06:45:38;;;;;;;5.95;1.60;;;;;;;17.63;56.25;102077.56;5075953;28;20102;-47
2022/09/01 06:48:03;;;;;;;3.45;1.50;;;;;;;17.77;55.60;102093.44;5077860;28;20024;-50
2022/09/01 06:50:29;;;;;;;5.28;1.60;;;;;;;17.85;55.59;102078.00;5076016;28;20039;-50
2022/09/01 06:53:07;;;;;;;4.30;1.48;;;;;;;17.90;54.44;102081.56;5072472;28;20035;-46
2022/09/01 06:55:36;;;;;;;4.80;1.73;;;;;;;18.02;54.43;102086.06;5076107;28;20067;-49
2022/09/01 06:58:06;;;;;;;5.38;1.63;;;;;;;18.11;53.47;102081.91;5069441;28;20052;-48
2022/09/01 07:00:34;;;;;;;5.43;1.50;;;;;;;18.16;53.77;102084.59;5070645;28;20032;-50
2022/09/01 07:03:02;;;;;;;10.60;1.93;;;;;;;18.26;54.14;102088.19;5076706;28;20029;-48
2022/09/01 07:05:27;;;;;;;6.95;1.88;;;;;;;18.37;53.04;102090.13;5067241;28;20354;-45
2022/09/01 07:07:54;;;;;;;7.68;1.70;;;;;;;18.42;53.00;102093.69;5069679;28;20446;-48
2022/09/01 07:10:26;;;;;;;8.45;1.60;;;;;;;18.61;53.35;102096.56;5069474;28;20101;-49
2022/09/01 07:12:54;;;;;;;8.88;1.48;;;;;;;18.70;53.23;102105.44;5070075;28;20036;-48
2022/09/01 07:15:20;;;;;;;5.05;1.40;;;;;;;18.80;52.36;102100.34;5072530;28;20035;-49
2022/09/01 07:17:57;;;;;;;7.55;1.90;;;;;;;18.97;52.42;102106.66;5077006;28;20036;-50
2022/09/01 07:20:25;;;;;;;6.13;1.50;;;;;;;19.00;52.07;102099.75;5073917;28;20054;-50
2022/09/01 07:22:52;;;;;;;6.50;1.83;;;;;;;19.08;51.96;102102.47;5076143;28;20035;-50
2022/09/01 07:25:19;;;;;;;5.03;1.73;;;;;;;19.16;51.96;102095.59;5072562;28;20036;-46
2022/09/01 07:27:48;;;;;;;4.32;1.23;;;;;;;19.31;52.14;102099.25;5068840;28;20025;-49
2022/09/01 07:30:14;;;;;;;7.43;1.70;;;;;;;19.37;51.90;102101.94;5072577;28;20031;-50
2022/09/01 07:32:42;;;;;;;6.88;1.60;;;;;;;19.40;51.54;102104.56;5069848;28;20013;-50
2022/09/01 07:35:08;;;;;;;5.82;1.55;;;;;;;19.55;51.48;102107.38;5068175;28;20088;-47
2022/09/01 07:37:36;;;;;;;10.43;1.88;;;;;;;19.64;51.35;102102.25;5067329;28;20082;-50
2022/09/01 07:40:06;;;;;;;6.27;1.77;;;;;;;19.68;50.82;102098.84;5066463;28;20042;-47
2022/09/01 07:42:32;;;;;;;4.68;1.92;;;;;;;19.67;50.47;102099.69;5069839;28;20298;-49
2022/09/01 07:44:58;;;;;;;8.20;1.80;;;;;;;19.81;50.92;102089.38;5070870;28;20396;-50
2022/09/01 07:47:24;;;;;;;8.13;2.00;;;;;;;19.81;50.51;102092.88;5073830;28;20111;-51
2022/09/01 07:49:49;;;;;;;5.97;1.63;;;;;;;19.91;50.49;102100.81;5070798;28;20103;-48
2022/09/01 07:52:14;;;;;;;2.88;1.60;;;;;;;20.01;50.93;102094.78;5056801;28;20032;-50
2022/09/01 07:54:41;;;;;;;4.70;1.58;;;;;;;20.08;50.63;102100.09;5074721;28;20033;-49
2022/09/01 07:57:06;;;;;;;8.73;1.65;;;;;;;20.16;50.30;102084.47;5075357;28;20150;-50
2022/09/01 07:59:34;;;;;;;4.47;2.15;;;;;;;20.28;51.17;102095.03;5075959;28;20559;-49
2022/09/01 08:02:00;;;;;;;7.63;1.95;;;;;;;20.31;50.73;102097.63;5072714;28;20032;-47
2022/09/01 08:04:26;;;;;;;5.25;1.95;;;;;;;20.34;50.19;102095.06;5076579;28;20031;-46
2022/09/01 08:06:51;;;;;;;8.98;1.58;;;;;;;20.43;49.95;102094.25;5064185;28;20082;-45
2022/09/01 08:09:17;;;;;;;5.53;1.63;;;;;;;20.52;50.55;102099.56;5072933;28;20029;-47
2022/09/01 08:11:42;;;;;;;7.05;1.70;;;;;;;20.60;49.97;102095.25;5077816;28;20051;-47
2022/09/01 08:14:08;;;;;;;6.47;1.60;;;;;;;20.72;50.26;102094.47;5079071;28;20054;-46
2022/09/01 08:16:33;;;;;;;6.07;1.70;;;;;;;20.77;49.54;102097.97;5078058;28;20067;-50
2022/09/01 08:18:59;;;;;;;9.30;1.73;;;;;;;20.87;49.56;102102.41;5080495;28;20425;-45
2022/09/01 08:21:25;;;;;;;6.20;1.52;;;;;;;20.98;48.86;102104.19;5078938;28;20025;-50
2022/09/01 08:23:53;;;;;;;3.40;1.48;;;;;;;21.09;49.18;102099.88;5075850;28;20510;-51
2022/09/01 08:26:22;;;;;;;8.00;1.73;;;;;;;21.14;48.33;102101.66;5074184;28;20123;-51
2022/09/01 08:28:47;;;;;;;;;;;;;;;21.25;48.85;102106.94;5075779;28;20057;-51
2022/09/01 08:31:16;;;;;;;6.97;2.20;;;;;;;21.30;48.11;102100.00;5080697;28;19920;-50
2022/09/01 08:33:46;;;;;;;4.72;1.50;;;;;;;21.40;47.90;102104.38;5074230;28;20385;-45
2022/09/01 08:36:13;;;;;;;4.43;1.45;;;;;;;21.48;47.66;102091.34;5071714;28;20505;-47
2022/09/01 08:38:39;;;;;;;2.85;1.33;;;;;;;21.59;47.35;102091.34;5075493;28;20031;-48
2022/09/01 08:41:15;;;;;;;5.97;1.60;;;;;;;21.64;47.44;102103.56;5081208;28;20043;-50
2022/09/01 08:43:40;;;;;;;6.40;1.60;;;;;;;21.73;46.98;102099.25;5077314;28;20020;-50
2022/09/01 08:46:18;;;;;;;4.30;1.40;;;;;;;21.85;47.57;102101.88;5075844;28;20123;-51
2022/09/01 08:49:21;;;;;;;6.32;1.60;;;;;;;21.92;47.53;102104.50;5077382;28;20506;-49
2022/09/01 08:51:59;;;;;;;4.65;1.30;;;;;;;21.97;47.08;102101.88;5077195;28;20026;-48
2022/09/01 08:54:44;;;;;;;5.28;1.73;;;;;;;22.03;47.00;102099.25;5071682;28;20040;-50
2022/09/01 08:57:17;;;;;;;8.10;1.50;;;;;;;22.08;46.17;102101.84;5076726;28;20029;-50
2022/09/01 08:59:42;;;;;;;6.50;1.50;;;;;;;22.16;47.01;102097.56;5071395;28;20123;-47
2022/09/01 09:02:38;;;;;;;11.45;1.70;;;;;;;22.23;45.84;102099.28;5075862;28;20115;-49
2022/09/01 09:05:23;;;;;;;6.53;1.80;;;;;;;22.25;45.74;102097.53;5074852;28;20081;-45
2022/09/01 09:08:07;;;;;;;7.07;1.73;;;;;;;22.29;45.62;102094.03;5076279;28;20115;-47
2022/09/01 09:10:59;;;;;;;4.18;1.67;;;;;;;22.37;46.17;102091.41;5073654;28;20051;-50
2022/09/01 09:13:27;;;;;;;5.50;1.40;;;;;;;22.38;45.34;102090.53;5076131;28;20037;-50
2022/09/01 09:16:22;;;;;;;3.13;1.53;;;;;;;22.43;45.19;102089.66;5073165;28;20114;-47
2022/09/01 09:19:02;;;;;;;3.17;1.52;;;;;;;22.52;45.35;102090.53;5073685;28;20047;-46
2022/09/01 09:21:45;;;;;;;8.85;1.55;;;;;;;22.57;45.03;102094.88;5073975;28;20085;-47
2022/09/01 09:24:18;;;;;;;4.75;1.70;;;;;;;22.53;44.57;102093.13;5077728;28;20028;-46
2022/09/01 09:26:52;;;;;;;5.57;1.42;;;;;;;22.59;44.39;102092.25;5073500;28;20028;-48
2022/09/01 09:29:20;;;;;;;6.85;1.60;;;;;;;22.64;43.77;102090.50;5081302;28;20031;-47
2022/09/01 09:31:49;;;;;;;4.00;1.60;;;;;;;22.66;44.04;102076.50;5075348;28;20526;-48
2022/09/01 09:34:36;;;;;;;7.30;1.60;;;;;;;22.84;43.90;102080.81;5079403;28;20043;-50
2022/09/01 09:37:19;;;;;;;4.55;1.50;;;;;;;22.86;43.42;102070.31;5077306;28;20044;-49
2022/09/01 09:40:01;;;;;;;5.45;1.27;;;;;;;22.89;43.21;102071.22;5079311;28;20036;-50
2022/09/01 09:42:27;;;;;;;5.60;1.10;;;;;;;23.01;43.17;102070.28;5076492;28;20044;-47
2022/09/01 09:44:54;;;;;;;2.67;1.25;;;;;;;23.11;43.08;102068.47;5074366;28;20064;-48
2022/09/01 09:47:53;;;;;;;3.33;1.27;;;;;;;23.18;42.99;102062.34;5079142;28;20530;-50
2022/09/01 09:50:34;;;;;;;4.35;1.40;;;;;;;23.28;43.33;102061.41;5036550;28;20116;-49
2022/09/01 09:53:25;;;;;;;3.13;1.00;;;;;;;23.37;43.13;102056.13;5078706;28;20099;-49
2022/09/01 09:56:23;;;;;;;4.40;1.17;;;;;;;23.48;41.23;102050.81;5071429;28;20082;-49
2022/09/01 09:58:49;;;;;;;3.33;1.10;;;;;;;23.56;40.90;102054.25;5073434;28;20054;-47
2022/09/01 10:01:22;;;;;;;2.63;1.10;;;;;;;23.64;39.92;102048.97;5077735;28;20040;-50
2022/09/01 10:03:53;;;;;;;3.03;1.00;;;;;;;23.63;39.55;102052.47;5081749;28;20040;-50
2022/09/01 10:06:44;;;;;;;8.40;1.20;;;;;;;23.73;40.13;102046.28;5074464;28;20410;-47
2022/09/01 10:09:32;;;;;;;4.47;0.90;;;;;;;23.72;39.40;102039.25;5084246;28;20119;-49
2022/09/01 10:11:58;;;;;;;7.63;1.00;;;;;;;23.85;38.87;102042.69;5071467;28;20078;-51
2022/09/01 10:14:32;;;;;;;2.88;0.90;;;;;;;23.92;37.72;102044.38;5073366;28;20052;-50
2022/09/01 10:17:02;;;;;;;2.70;1.00;;;;;;;24.03;37.88;102048.66;5071384;28;20400;-50
2022/09/01 10:19:31;;;;;;;3.35;0.95;;;;;;;24.22;36.82;102041.47;5074711;28;20056;-50
2022/09/01 10:21:57;;;;;;;5.05;1.13;;;;;;;24.26;36.94;102032.63;5074909;28;20028;-49
2022/09/01 10:24:25;;;;;;;4.72;0.80;;;;;;;24.36;37.17;102033.47;5076514;28;20020;-50
2022/09/01 10:26:56;;;;;;;4.28;1.00;;;;;;;24.47;36.90;102033.34;5074528;28;20032;-50
2022/09/01 10:29:40;;;;;;;6.28;1.05;;;;;;;24.46;35.91;102034.25;5070388;28;20025;-49
2022/09/01 10:32:10;;;;;;;2.95;0.88;;;;;;;24.41;34.94;102036.03;5066979;28;20039;-48
2022/09/01 10:34:38;;;;;;;4.32;1.10;;;;;;;24.47;34.85;102031.59;5072901;28;20021;-49
2022/09/01 10:37:06;;;;;;;3.22;0.80;;;;;;;24.60;34.19;102032.31;5077497;28;20046;-51
2022/09/01 10:39:32;;;;;;;5.17;1.00;;;;;;;24.70;34.08;102035.72;5067979;28;20465;-50
2022/09/01 10:42:06;;;;;;;3.85;1.05;;;;;;;24.80;33.25;102034.69;5075334;28;20035;-50
2022/09/01 10:44:55;;;;;;;4.05;1.10;;;;;;;24.95;34.39;102028.38;5068568;28;20175;-51
2022/09/01 10:47:28;;;;;;;3.72;1.00;;;;;;;25.13;34.13;102021.13;5070905;28;20035;-49
2022/09/01 10:49:53;;;;;;;2.08;0.90;;;;;;;25.27;34.31;102028.84;5070097;28;20036;-45
2022/09/01 10:52:40;;;;;;;3.40;0.90;;;;;;;25.51;34.09;102026.72;5072584;28;20493;-45
2022/09/01 10:55:13;;;;;;;3.25;0.90;;;;;;;25.65;33.39;102027.38;5069025;28;20040;-52
2022/09/01 10:57:47;;;;;;;2.30;0.90;;;;;;;25.72;32.69;102020.22;5070412;28;20334;-49
2022/09/01 11:00:18;;;;;;;3.03;0.80;;;;;;;25.80;32.09;102016.63;5070107;28;20517;-51
2022/09/01 11:03:09;;;;;;;5.55;0.80;;;;;;;25.86;32.40;102018.28;5066200;28;20374;-49
2022/09/01 11:05:53;;;;;;;4.47;0.88;;;;;;;26.05;33.38;102021.47;5069279;28;20116;-51
2022/09/01 11:08:27;;;;;;;3.08;0.70;;;;;;;26.29;32.69;102009.59;5070880;28;20389;-50
2022/09/01 11:10:59;;;;;;;6.18;1.00;;;;;;;26.46;32.40;102007.53;5065607;28;20059;-51
2022/09/01 11:13:45;;;;;;;2.58;0.70;;;;;;;26.56;32.04;102009.06;5070805;28;20062;-48
2022/09/01 11:16:29;;;;;;;2.92;0.60;;;;;;;26.68;31.15;102014.09;5075458;28;20099;-49
2022/09/01 11:19:15;;;;;;;2.45;0.73;;;;;;;26.71;29.83;102015.81;5068100;28;20047;-51
2022/09/01 11:21:41;;;;;;;4.47;0.90;;;;;;;26.98;30.31;102006.41;5068637;28;20420;-50
2022/09/01 11:24:38;;;;;;;2.47;0.73;;;;;;;27.33;31.18;102003.00;5071803;28;20093;-48
2022/09/01 11:27:05;;;;;;;1.77;1.00;;;;;;;27.38;29.77;102000.28;5072633;28;20031;-49
2022/09/01 11:29:57;;;;;;;1.45;0.80;;;;;;;27.78;29.76;101997.50;5071151;28;20020;-47
2022/09/01 11:32:37;;;;;;;5.72;0.70;;;;;;;27.67;28.13;101994.28;5075957;28;20020;-45
2022/09/01 11:35:06;;;;;;;3.90;0.90;;;;;;;27.49;27.77;101996.47;5078799;28;20519;-51
2022/09/01 11:37:32;;;;;;;3.95;0.88;;;;;;;27.48;27.82;101991.19;5079152;28;20032;-50
2022/09/01 11:40:00;;;;;;;4.60;0.95;;;;;;;27.57;28.12;101993.63;5081964;28;20030;-49
2022/09/01 11:42:38;;;;;;;;;;;;;;;28.09;29.02;101997.59;5080563;28;20101;-50
2022/09/01 11:45:27;;;;;;;5.35;0.73;;;;;;;27.92;29.46;101976.03;5076362;28;20844;-50
2022/09/01 11:47:57;;;;;;;3.58;0.90;;;;;;;27.56;27.96;101977.81;5074257;28;20385;-49